Time;durP1;ratioP1;P1;durP2;ratioP2;P2;SDS_P1;SDS_P2;PMS_P1;PMS_P2;Temp;Humidity;BMP_temperature;BMP_pressure;BME280_temperature;BME280_humidity;BME280_pressure;Samples;Min_cycle;Max_cycle;Signal;HPM_P1;HPM_P2
2023/05/30 00:02:17;;;;;;;;;;;;;;;16.41;100.00;96185.72;5036078;28;19933;-78
2023/05/30 00:04:45;;;;;;;;;;;;;;;16.38;100.00;96186.25;5029910;28;19932;-77
2023/05/30 00:07:12;;;;;;;;;;;;;;;16.24;100.00;96175.06;5029581;28;19925;-78
2023/05/30 00:09:41;;;;;;;;;;;;;;;16.08;100.00;96181.56;5008696;28;20043;-78
2023/05/30 00:12:08;;;;;;;;;;;;;;;15.96;100.00;96182.91;5011264;28;19932;-77
2023/05/30 00:14:36;;;;;;;;;;;;;;;15.86;100.00;96187.22;5027781;28;19933;-78
2023/05/30 00:17:03;;;;;;;;;;;;;;;15.82;100.00;96180.66;5019757;28;19925;-78
2023/05/30 00:19:31;;;;;;;;;;;;;;;15.86;100.00;96179.06;5023509;28;19925;-78
2023/05/30 00:21:57;;;;;;;;;;;;;;;15.83;100.00;96171.41;5011562;28;19933;-78
2023/05/30 00:24:25;;;;;;;;;;;;;;;15.75;100.00;96182.81;5009724;28;19926;-78
2023/05/30 00:26:53;;;;;;;;;;;;;;;15.67;100.00;96175.19;5009986;28;19932;-78
2023/05/30 00:29:20;;;;;;;;;;;;;;;15.66;100.00;96180.88;5001469;28;19933;-78
2023/05/30 00:31:47;;;;;;;;;;;;;;;15.66;100.00;96178.97;5011082;28;19971;-78
2023/05/30 00:34:16;;;;;;;;;;;;;;;15.64;100.00;96180.34;5011445;28;19965;-77
2023/05/30 00:36:43;;;;;;;;;;;;;;;15.61;100.00;96176.25;4999694;28;19932;-78
2023/05/30 00:39:09;;;;;;;;;;;;;;;15.61;100.00;96181.69;5011167;28;19956;-78
2023/05/30 00:41:37;;;;;;;;;;;;;;;15.59;100.00;96178.41;5009078;28;19933;-78
2023/05/30 00:44:06;;;;;;;;;;;;;;;15.61;100.00;96176.25;5011608;28;19925;-77
2023/05/30 00:46:33;;;;;;;;;;;;;;;15.59;100.00;96177.59;5031346;28;19979;-78
2023/05/30 00:49:01;;;;;;;;;;;;;;;15.59;100.00;96175.69;5011855;28;19980;-77
2023/05/30 00:51:29;;;;;;;;;;;;;;;15.52;100.00;96177.81;5019644;28;19931;-77
2023/05/30 00:53:56;;;;;;;;;;;;;;;15.51;100.00;96181.59;5023510;28;19928;-77
2023/05/30 00:56:26;;;;;;;;;;;;;;;15.51;100.00;96176.16;5006671;28;19933;-78
2023/05/30 00:58:54;;;;;;;;;;;;;;;15.50;100.00;96172.63;5010999;28;19925;-77
2023/05/30 01:01:24;;;;;;;;;;;;;;;15.51;100.00;96176.16;5009159;28;19925;-79
2023/05/30 01:03:51;;;;;;;;;;;;;;;15.54;100.00;96172.97;5008508;28;19932;-78
2023/05/30 01:06:19;;;;;;;;;;;;;;;15.60;100.00;96174.59;5024135;28;20137;-77
2023/05/30 01:08:46;;;;;;;;;;;;;;;15.62;100.00;96174.34;5027165;28;19928;-78
2023/05/30 01:11:23;;;;;;;;;;;;;;;15.50;100.00;96180.78;5028487;28;19968;-77
2023/05/30 01:13:53;;;;;;;;;;;;;;;15.43;100.00;96173.94;5048549;28;19929;-78
2023/05/30 01:16:24;;;;;;;;;;;;;;;15.43;100.00;96177.50;5028538;28;19936;-78
2023/05/30 01:18:55;;;;;;;;;;;;;;;15.48;100.00;96165.84;5031470;28;20126;-77
2023/05/30 01:21:22;;;;;;;;;;;;;;;15.47;100.00;96167.72;5027713;28;19953;-77
2023/05/30 01:24:02;;;;;;;;;;;;;;;15.46;100.00;96159.84;5029479;28;19932;-78
2023/05/30 01:26:34;;;;;;;;;;;;;;;15.51;100.00;96165.28;5047288;28;19934;-78
2023/05/30 01:29:03;;;;;;;;;;;;;;;15.39;100.00;96170.16;5030352;28;19925;-77
2023/05/30 01:31:30;;;;;;;;;;;;;;;15.13;100.00;96178.16;5027465;28;20023;-77
2023/05/30 01:33:58;;;;;;;;;;;;;;;15.07;100.00;96165.59;5030200;28;19925;-77
2023/05/30 01:36:25;;;;;;;;;;;;;;;15.07;100.00;96165.59;5026256;28;19925;-78
2023/05/30 01:38:53;;;;;;;;;;;;;;;15.10;100.00;96159.66;5035721;28;19932;-78
2023/05/30 01:41:23;;;;;;;;;;;;;;;15.14;100.00;96163.47;5027195;28;19929;-78
2023/05/30 01:43:53;;;;;;;;;;;;;;;15.04;100.00;96166.16;5031769;28;19936;-77
2023/05/30 01:46:33;;;;;;;;;;;;;;;15.02;100.00;96162.88;5029232;28;19929;-78
2023/05/30 01:49:06;;;;;;;;;;;;;;;15.02;100.00;96167.47;5026765;28;19932;-77
2023/05/30 01:51:37;;;;;;;;;;;;;;;14.95;100.00;96167.72;5027929;28;19933;-78
2023/05/30 01:54:05;;;;;;;;;;;;;;;14.96;100.00;96163.09;5023012;28;19931;-78
2023/05/30 01:56:34;;;;;;;;;;;;;;;14.97;100.00;96173.69;5027432;28;19933;-79
2023/05/30 01:59:01;;;;;;;;;;;;;;;15.01;100.00;96165.84;5030784;28;19984;-78
2023/05/30 02:01:30;;;;;;;;;;;;;;;15.06;100.00;96166.69;5026863;28;19925;-78
2023/05/30 02:03:56;;;;;;;;;;;;;;;15.03;100.00;96171.84;5035806;28;20031;-77
2023/05/30 02:06:24;;;;;;;;;;;;;;;15.04;100.00;96171.59;5033225;28;19925;-77
2023/05/30 02:08:52;;;;;;;;;;;;;;;15.09;100.00;96179.75;5030492;28;19970;-78
2023/05/30 02:11:18;;;;;;;;;;;;;;;15.10;100.00;96184.13;5040538;28;19924;-78
2023/05/30 02:13:46;;;;;;;;;;;;;;;15.12;100.00;96186.56;5030529;28;19947;-79
2023/05/30 02:16:12;;;;;;;;;;;;;;;15.12;100.00;96173.81;5021282;28;19960;-78
2023/05/30 02:18:41;;;;;;;;;;;;;;;15.09;100.00;96179.75;5025089;28;19948;-78
2023/05/30 02:21:08;;;;;;;;;;;;;;;15.00;100.00;96186.78;5031512;28;19951;-77
2023/05/30 02:23:37;;;;;;;;;;;;;;;14.90;100.00;96189.41;5034883;28;19932;-78
2023/05/30 02:26:05;;;;;;;;;;;;;;;14.88;100.00;96190.78;5033562;28;19929;-77
2023/05/30 02:28:32;;;;;;;;;;;;;;;14.84;100.00;96187.75;5031178;28;19931;-78
2023/05/30 02:30:59;;;;;;;;;;;;;;;14.82;100.00;96189.91;5028154;28;19925;-77
2023/05/30 02:33:26;;;;;;;;;;;;;;;14.76;100.00;96191.78;5033305;28;20015;-77
2023/05/30 02:35:54;;;;;;;;;;;;;;;14.71;100.00;96199.91;5028061;28;19925;-78
2023/05/30 02:38:21;;;;;;;;;;;;;;;14.68;100.00;96200.41;5025161;28;19929;-77
2023/05/30 02:40:48;;;;;;;;;;;;;;;14.64;100.00;96195.72;5049487;28;19931;-77
2023/05/30 02:43:15;;;;;;;;;;;;;;;14.59;100.00;96203.84;5033685;28;19924;-78
2023/05/30 02:45:42;;;;;;;;;;;;;;;14.56;100.00;96202.47;5031345;28;19991;-77
2023/05/30 02:48:09;;;;;;;;;;;;;;;14.52;100.00;96211.41;5029237;28;19997;-77
2023/05/30 02:50:37;;;;;;;;;;;;;;;14.51;100.00;96212.47;5024603;28;19924;-77
2023/05/30 02:53:08;;;;;;;;;;;;;;;14.46;100.00;96215.16;5030492;28;19925;-78
2023/05/30 02:55:35;;;;;;;;;;;;;;;14.48;100.00;96210.25;5028817;28;19931;-78
2023/05/30 02:58:25;;;;;;;;;;;;;;;14.50;100.00;96213.56;5045681;28;19935;-77
2023/05/30 03:01:26;;;;;;;;;;;;;;;14.47;100.00;96222.22;5043736;28;20030;-78
2023/05/30 03:03:52;;;;;;;;;;;;;;;14.24;100.00;96217.88;5027487;28;20267;-78
2023/05/30 03:06:35;;;;;;;;;;;;;;;14.16;100.00;96211.03;5027635;28;19925;-77
2023/05/30 03:09:22;;;;;;;;;;;;;;;14.17;100.00;96215.38;5043041;28;19929;-78
2023/05/30 03:11:50;;;;;;;;;;;;;;;14.21;100.00;96219.22;5029493;28;19939;-78
2023/05/30 03:14:17;;;;;;;;;;;;;;;14.18;100.00;96213.50;5030317;28;19925;-78
2023/05/30 03:16:45;;;;;;;;;;;;;;;14.12;100.00;96226.19;5015890;28;19924;-79
2023/05/30 03:19:14;;;;;;;;;;;;;;;14.06;100.00;96231.81;5026015;28;19929;-78
2023/05/30 03:21:42;;;;;;;;;;;;;;;14.08;100.00;96233.22;5027930;28;19936;-78
2023/05/30 03:24:12;;;;;;;;;;;;;;;14.03;100.00;96223.09;5046707;28;19988;-77
2023/05/30 03:26:44;;;;;;;;;;;;;;;14.05;100.00;96227.47;5030830;28;19925;-78
2023/05/30 03:29:13;;;;;;;;;;;;;;;14.02;100.00;96228.81;5041400;28;19925;-78
2023/05/30 03:31:40;;;;;;;;;;;;;;;14.03;100.00;96230.44;5028326;28;20228;-78
2023/05/30 03:34:08;;;;;;;;;;;;;;;13.97;100.00;96236.88;5036340;28;19974;-77
2023/05/30 03:36:35;;;;;;;;;;;;;;;13.93;100.00;96235.75;5036329;28;19925;-78
2023/05/30 03:39:02;;;;;;;;;;;;;;;13.94;100.00;96248.25;5028130;28;19929;-78
2023/05/30 03:41:29;;;;;;;;;;;;;;;13.90;100.00;96249.81;5031951;28;19976;-79
2023/05/30 03:43:58;;;;;;;;;;;;;;;13.83;100.00;96250.03;5029470;28;19932;-78
2023/05/30 03:46:25;;;;;;;;;;;;;;;13.79;100.00;96256.19;5030691;28;19932;-78
2023/05/30 03:48:52;;;;;;;;;;;;;;;13.80;100.00;96255.94;5029849;28;20000;-78
2023/05/30 03:51:19;;;;;;;;;;;;;;;13.81;100.00;96259.47;5040692;28;19932;-78
2023/05/30 03:53:46;;;;;;;;;;;;;;;13.71;100.00;96270.19;5022448;28;19929;-78
2023/05/30 03:56:13;;;;;;;;;;;;;;;13.64;100.00;96270.41;5032131;28;19925;-77
2023/05/30 03:58:40;;;;;;;;;;;;;;;13.66;100.00;96264.72;5031910;28;19925;-78
2023/05/30 04:01:10;;;;;;;;;;;;;;;13.67;100.00;96267.19;5025572;28;19936;-77
2023/05/30 04:03:38;;;;;;;;;;;;;;;13.52;100.00;96264.28;5023011;28;19924;-77
2023/05/30 04:06:06;;;;;;;;;;;;;;;13.48;100.00;96266.66;5021582;28;19925;-78
2023/05/30 04:08:33;;;;;;;;;;;;;;;13.54;100.00;96270.25;5029968;28;19939;-78
2023/05/30 04:11:00;;;;;;;;;;;;;;;13.58;100.00;96277.66;5043189;28;19932;-77
2023/05/30 04:13:27;;;;;;;;;;;;;;;13.59;100.00;96271.16;5045805;28;19929;-78
2023/05/30 04:15:53;;;;;;;;;;;;;;;13.48;100.00;96271.25;5028734;28;19929;-78
2023/05/30 04:18:22;;;;;;;;;;;;;;;13.39;100.00;96278.19;5029007;28;19925;-77
2023/05/30 04:20:48;;;;;;;;;;;;;;;13.42;100.00;96281.22;5032163;28;19932;-78
2023/05/30 04:23:16;;;;;;;;;;;;;;;13.43;100.00;96292.91;5034999;28;19968;-77
2023/05/30 04:25:44;;;;;;;;;;;;;;;13.43;100.00;96295.63;5030489;28;19928;-78
2023/05/30 04:28:12;;;;;;;;;;;;;;;13.47;100.00;96302.16;5030454;28;19935;-78
2023/05/30 04:30:40;;;;;;;;;;;;;;;13.49;100.00;96300.84;5039893;28;19929;-77
2023/05/30 04:33:09;;;;;;;;;;;;;;;13.49;100.00;96309.00;5045656;28;19932;-77
2023/05/30 04:35:39;;;;;;;;;;;;;;;13.43;100.00;96299.16;5028019;28;19925;-78
2023/05/30 04:38:06;;;;;;;;;;;;;;;13.39;100.00;96299.88;5031126;28;19924;-78
2023/05/30 04:40:33;;;;;;;;;;;;;;;13.24;100.00;96300.47;5033945;28;20210;-77
2023/05/30 04:43:00;;;;;;;;;;;;;;;13.15;100.00;96299.25;5029941;28;19933;-77
2023/05/30 04:45:28;;;;;;;;;;;;;;;13.21;100.00;96299.06;5046065;28;19925;-78
2023/05/30 04:47:56;;;;;;;;;;;;;;;13.32;100.00;96305.47;5031094;28;19925;-78
2023/05/30 04:50:24;;;;;;;;;;;;;;;13.48;100.00;96310.06;5033874;28;19925;-77
2023/05/30 04:52:52;;;;;;;;;;;;;;;13.56;100.00;96315.06;5043444;28;19963;-77
2023/05/30 04:55:19;;;;;;;;;;;;;;;13.61;100.00;96309.69;5040585;28;19932;-77
2023/05/30 04:57:46;;;;;;;;;;;;;;;13.67;100.00;96310.59;5030825;28;19960;-77
2023/05/30 05:00:13;;;;;;;;;;;;;;;13.75;100.00;96314.78;5029428;28;19931;-77
2023/05/30 05:02:42;;;;;;;;;;;;;;;13.84;100.00;96316.81;5032704;28;20011;-78
2023/05/30 05:05:09;;;;;;;;;;;;;;;13.91;100.00;96313.91;5032218;28;20012;-78
2023/05/30 05:07:35;;;;;;;;;;;;;;;13.93;100.00;96328.03;5045629;28;19925;-77
2023/05/30 05:10:04;;;;;;;;;;;;;;;13.90;100.00;96328.53;5028491;28;19925;-80
2023/05/30 05:12:32;;;;;;;;;;;;;;;13.90;100.00;96323.94;5044883;28;20008;-77
2023/05/30 05:14:58;;;;;;;;;;;;;;;13.98;100.00;96328.91;5044347;28;19932;-78
2023/05/30 05:17:25;;;;;;;;;;;;;;;13.98;100.00;96320.78;5033760;28;19928;-77
2023/05/30 05:19:52;;;;;;;;;;;;;;;13.98;100.00;96330.81;5046217;28;19925;-77
2023/05/30 05:22:19;;;;;;;;;;;;;;;14.09;100.00;96323.63;5028613;28;20025;-78
2023/05/30 05:24:46;;;;;;;;;;;;;;;14.08;100.00;96327.41;5033933;28;19925;-79
2023/05/30 05:27:15;;;;;;;;;;;;;;;14.14;100.00;96335.38;5048093;28;19929;-77
2023/05/30 05:29:41;;;;;;;;;;;;;;;14.15;100.00;96331.56;5029130;28;19928;-77
2023/05/30 05:32:09;;;;;;;;;;;;;;;14.19;100.00;96331.91;5024978;28;19925;-78
2023/05/30 05:34:36;;;;;;;;;;;;;;;14.21;100.00;96330.56;5041669;28;19925;-77
2023/05/30 05:37:03;;;;;;;;;;;;;;;14.23;100.00;96333.84;5027389;28;19932;-78
2023/05/30 05:39:29;;;;;;;;;;;;;;;14.26;100.00;96327.91;5029721;28;19932;-77
2023/05/30 05:41:56;;;;;;;;;;;;;;;14.34;100.00;96324.75;5049423;28;19932;-77
2023/05/30 05:44:24;;;;;;;;;;;;;;;14.42;100.00;96323.50;5030511;28;19971;-78
2023/05/30 05:46:52;;;;;;;;;;;;;;;14.53;100.00;96325.25;5032706;28;19929;-78
2023/05/30 05:49:18;;;;;;;;;;;;;;;14.55;100.00;96319.56;5030829;28;19924;-79
2023/05/30 05:51:45;;;;;;;;;;;;;;;14.63;100.00;96324.56;5028828;28;19932;-78
2023/05/30 05:54:12;;;;;;;;;;;;;;;14.75;100.00;96319.75;5048659;28;19940;-77
2023/05/30 05:56:39;;;;;;;;;;;;;;;14.82;100.00;96323.09;5041377;28;19925;-77
2023/05/30 05:59:06;;;;;;;;;;;;;;;14.87;100.00;96317.72;5044423;28;19936;-78
2023/05/30 06:01:34;;;;;;;;;;;;;;;14.99;100.00;96321.06;5041667;28;19935;-78
2023/05/30 06:04:03;;;;;;;;;;;;;;;15.08;100.00;96326.84;5031249;28;19936;-78
2023/05/30 06:06:30;;;;;;;;;;;;;;;15.16;100.00;96318.22;5039350;28;19968;-78
2023/05/30 06:08:57;;;;;;;;;;;;;;;15.25;100.00;96313.94;5027318;28;19925;-77
2023/05/30 06:11:25;;;;;;;;;;;;;;;15.28;100.00;96312.63;5028531;28;20172;-78
2023/05/30 06:13:52;;;;;;;;;;;;;;;15.29;100.00;96308.81;5016500;28;19993;-78
2023/05/30 06:16:19;;;;;;;;;;;;;;;15.35;100.00;96314.03;5027064;28;19992;-77
2023/05/30 06:18:47;;;;;;;;;;;;;;;15.45;100.00;96319.56;5028062;28;19939;-79
2023/05/30 06:21:14;;;;;;;;;;;;;;;15.49;100.00;96319.81;5027648;28;19925;-78
2023/05/30 06:23:41;;;;;;;;;;;;;;;15.50;100.00;96322.28;5029967;28;19959;-79
2023/05/30 06:26:08;;;;;;;;;;;;;;;15.49;100.00;96325.28;5028381;28;19952;-77
2023/05/30 06:28:35;;;;;;;;;;;;;;;15.49;100.00;96325.28;5022563;28;19974;-78
2023/05/30 06:31:02;;;;;;;;;;;;;;;15.50;100.00;96322.28;5022719;28;19929;-82
2023/05/30 06:33:29;;;;;;;;;;;;;;;15.50;100.00;96316.03;5023434;28;19925;-82
2023/05/30 06:35:57;;;;;;;;;;;;;;;15.54;100.00;96317.19;5032204;28;19932;-82
2023/05/30 06:38:25;;;;;;;;;;;;;;;15.62;100.00;96319.41;5028165;28;19935;-83
2023/05/30 06:40:52;;;;;;;;;;;;;;;15.67;100.00;96316.72;5027601;28;19929;-84
2023/05/30 06:43:19;;;;;;;;;;;;;;;15.79;100.00;96313.81;5028523;28;20011;-82
2023/05/30 06:45:46;;;;;;;;;;;;;;;15.86;100.00;96307.03;5038951;28;19931;-84
2023/05/30 06:48:12;;;;;;;;;;;;;;;15.94;100.00;96313.06;5030271;28;19932;-84
2023/05/30 06:50:39;;;;;;;;;;;;;;;15.95;100.00;96318.25;5031013;28;19979;-84
2023/05/30 06:53:07;;;;;;;;;;;;;;;16.02;100.00;96326.97;5032224;28;19924;-84
2023/05/30 06:55:34;;;;;;;;;;;;;;;16.09;100.00;96319.38;5028793;28;19925;-84
2023/05/30 06:58:01;;;;;;;;;;;;;;;16.22;100.00;96324.38;5029483;28;20000;-84
2023/05/30 07:00:28;;;;;;;;;;;;;;;16.31;100.00;96311.03;5028832;28;19968;-84
2023/05/30 07:02:55;;;;;;;;;;;;;;;16.41;100.00;96315.72;5049171;28;19924;-84
2023/05/30 07:05:21;;;;;;;;;;;;;;;16.49;100.00;96316.00;5050107;28;19939;-84
2023/05/30 07:07:49;;;;;;;;;;;;;;;16.57;100.00;96320.94;5048100;28;19932;-84
2023/05/30 07:10:17;;;;;;;;;;;;;;;16.67;100.00;96320.19;5043537;28;19940;-84
2023/05/30 07:12:44;;;;;;;;;;;;;;;16.77;100.00;96324.81;5031425;28;19932;-84
2023/05/30 07:15:12;;;;;;;;;;;;;;;16.80;100.00;96330.56;5020455;28;19971;-84
2023/05/30 07:17:39;;;;;;;;;;;;;;;16.81;100.00;96331.38;5030960;28;19935;-85
2023/05/30 07:20:07;;;;;;;;;;;;;;;16.76;100.00;96332.16;5024390;28;19959;-85
2023/05/30 07:22:34;;;;;;;;;;;;;;;16.69;100.00;96334.34;5015355;28;19968;-85
2023/05/30 07:25:01;;;;;;;;;;;;;;;16.72;100.00;96344.72;5034184;28;19931;-86
2023/05/30 07:27:29;;;;;;;;;;;;;;;16.71;100.00;96334.91;5045542;28;19929;-84
2023/05/30 07:29:56;;;;;;;;;;;;;;;16.61;100.00;96330.22;5041538;28;19925;-82
2023/05/30 07:32:23;;;;;;;;;;;;;;;16.56;100.00;96330.19;5044894;28;19931;-82
2023/05/30 07:34:51;;;;;;;;;;;;;;;16.55;100.00;96334.00;5042058;28;19925;-83
2023/05/30 07:37:19;;;;;;;;;;;;;;;16.48;100.00;96332.63;5031787;28;20016;-84
2023/05/30 07:39:46;;;;;;;;;;;;;;;16.50;100.00;96333.97;5030849;28;19929;-84
2023/05/30 07:42:13;;;;;;;;;;;;;;;16.61;100.00;96326.69;5042349;28;19924;-84
2023/05/30 07:44:41;;;;;;;;;;;;;;;16.81;100.00;96331.38;5031556;28;19925;-83
2023/05/30 07:47:08;;;;;;;;;;;;;;;17.09;100.00;96333.59;5046702;28;19962;-83
2023/05/30 07:49:35;;;;;;;;;;;;;;;17.45;100.00;96325.41;5042416;28;19940;-83
2023/05/30 07:52:02;;;;;;;;;;;;;;;17.87;100.00;96320.44;5029260;28;19933;-85
2023/05/30 07:54:29;;;;;;;;;;;;;;;18.19;100.00;96319.28;5052980;28;19932;-85
2023/05/30 07:56:56;;;;;;;;;;;;;;;18.53;100.00;96321.03;5041453;28;19963;-85
2023/05/30 07:59:23;;;;;;;;;;;;;;;18.79;100.00;96321.75;5024738;28;19939;-83
2023/05/30 08:01:52;;;;;;;;;;;;;;;18.79;98.58;96329.13;5028119;28;19929;-84
2023/05/30 08:04:20;;;;;;;;;;;;;;;18.80;98.23;96326.09;5032268;28;19925;-84
2023/05/30 08:06:47;;;;;;;;;;;;;;;18.78;95.91;96322.03;5041640;28;19925;-81
2023/05/30 08:09:14;;;;;;;;;;;;;;;18.51;98.26;96325.13;5029612;28;19947;-84
2023/05/30 08:11:40;;;;;;;;;;;;;;;18.59;96.94;96321.03;5026321;28;19924;-84
2023/05/30 08:14:10;;;;;;;;;;;;;;;18.84;95.07;96321.69;5040960;28;19932;-84
2023/05/30 08:16:39;;;;;;;;;;;;;;;19.08;93.57;96321.00;5029692;28;19925;-85
2023/05/30 08:19:07;;;;;;;;;;;;;;;19.31;89.03;96324.94;5022662;28;19948;-85
2023/05/30 08:21:36;;;;;;;;;;;;;;;19.43;88.86;96317.16;5047117;28;19955;-85
2023/05/30 08:24:02;;;;;;;;;;;;;;;19.26;87.83;96314.84;5026035;28;19936;-85
2023/05/30 08:26:30;;;;;;;;;;;;;;;19.30;89.64;96318.66;5025824;28;19929;-84
2023/05/30 08:28:57;;;;;;;;;;;;;;;19.42;85.80;96319.06;5029470;28;19965;-85
2023/05/30 08:31:23;;;;;;;;;;;;;;;19.55;86.09;96306.69;5046664;28;19929;-84
2023/05/30 08:33:50;;;;;;;;;;;;;;;19.62;87.62;96297.03;5026728;28;19933;-84
2023/05/30 08:36:21;;;;;;;;;;;;;;;19.51;86.78;96298.22;5033488;28;19925;-83
2023/05/30 08:38:53;;;;;;;;;;;;;;;19.89;89.35;96301.97;5028573;28;19936;-84
2023/05/30 08:41:21;;;;;;;;;;;;;;;20.10;87.52;96308.00;5026305;28;19944;-84
2023/05/30 08:43:48;;;;;;;;;;;;;;;20.40;83.29;96306.88;5029394;28;19925;-84
2023/05/30 08:46:15;;;;;;;;;;;;;;;20.54;81.14;96301.47;5027299;28;19925;-85
2023/05/30 08:48:42;;;;;;;;;;;;;;;20.60;80.46;96303.84;5051458;28;19931;-85
2023/05/30 08:51:12;;;;;;;;;;;;;;;20.75;82.66;96308.34;5028765;28;19930;-85
2023/05/30 08:53:44;;;;;;;;;;;;;;;20.89;77.93;96300.16;5029468;28;19932;-86
2023/05/30 08:56:12;;;;;;;;;;;;;;;20.84;77.04;96306.53;5035170;28;19983;-85
2023/05/30 08:58:41;;;;;;;;;;;;;;;20.94;78.38;96295.41;5023080;28;19928;-85
2023/05/30 09:01:10;;;;;;;;;;;;;;;20.70;78.97;96300.16;5015259;28;19933;-86
2023/05/30 09:03:38;;;;;;;;;;;;;;;20.72;81.14;96293.28;5041468;28;19925;-85
2023/05/30 09:06:07;;;;;;;;;;;;;;;20.70;77.30;96294.66;5032480;28;19929;-86
2023/05/30 09:08:34;;;;;;;;;;;;;;;20.79;77.50;96284.66;5031206;28;19935;-86
2023/05/30 09:11:03;;;;;;;;;;;;;;;20.84;76.57;96290.06;5043225;28;19992;-86
2023/05/30 09:13:30;;;;;;;;;;;;;;;20.95;75.29;96288.81;5028823;28;19931;-86
2023/05/30 09:15:57;;;;;;;;;;;;;;;21.03;76.00;96287.31;5030262;28;19925;-86
2023/05/30 09:18:23;;;;;;;;;;;;;;;21.16;74.34;96286.56;5045390;28;19928;-86
2023/05/30 09:20:52;;;;;;;;;;;;;;;21.27;74.32;96289.97;5049693;28;19931;-87
2023/05/30 09:23:19;;;;;;;;;;;;;;;21.28;72.26;96286.94;5028450;28;19929;-86
2023/05/30 09:25:49;;;;;;;;;;;;;;;21.26;71.89;96278.22;5034361;28;19928;-86
2023/05/30 09:28:24;;;;;;;;;;;;;;;21.43;71.55;96283.16;5044248;28;19932;-86
2023/05/30 09:30:55;;;;;;;;;;;;;;;21.73;70.00;96279.84;5030508;28;19925;-85
2023/05/30 09:33:22;;;;;;;;;;;;;;;21.83;70.00;96270.59;5033772;28;20043;-86
2023/05/30 09:35:52;;;;;;;;;;;;;;;21.95;69.20;96275.63;5035288;28;19931;-86
2023/05/30 09:38:20;;;;;;;;;;;;;;;22.00;69.07;96273.59;5029466;28;19925;-85
2023/05/30 09:40:49;;;;;;;;;;;;;;;21.96;68.27;96269.78;5024337;28;19963;-88
2023/05/30 09:43:34;;;;;;;;;;;;;;;21.92;69.10;96279.78;5029220;28;19933;-88
2023/05/30 09:46:05;;;;;;;;;;;;;;;22.09;67.65;96270.97;5029452;28;19925;-87
2023/05/30 09:48:32;;;;;;;;;;;;;;;22.23;67.47;96271.75;5050966;28;19964;-87
2023/05/30 09:51:01;;;;;;;;;;;;;;;22.21;66.93;96274.00;5032962;28;19928;-88
2023/05/30 09:53:29;;;;;;;;;;;;;;;22.32;69.19;96274.59;5029402;28;19932;-87
2023/05/30 09:55:56;;;;;;;;;;;;;;;22.26;68.64;96271.97;5028418;28;19929;-87
2023/05/30 09:58:25;;;;;;;;;;;;;;;22.17;68.32;96275.75;5033743;28;19925;-87
2023/05/30 10:00:52;;;;;;;;;;;;;;;22.11;66.65;96280.53;5033643;28;19924;-87
2023/05/30 10:03:21;;;;;;;;;;;;;;;22.18;69.51;96274.63;5017036;28;19936;-88
2023/05/30 10:05:47;;;;;;;;;;;;;;;22.44;67.98;96270.22;5028413;28;19924;-87
2023/05/30 10:08:15;;;;;;;;;;;;;;;22.73;69.02;96274.53;5032060;28;19932;-87
2023/05/30 10:10:42;;;;;;;;;;;;;;;23.02;66.89;96270.31;5033745;28;19971;-86
2023/05/30 10:13:10;;;;;;;;;;;;;;;23.02;66.53;96266.75;5026726;28;19955;-86
2023/05/30 10:15:38;;;;;;;;;;;;;;;23.03;62.42;96265.63;5039837;28;19933;-86
2023/05/30 10:18:07;;;;;;;;;;;;;;;22.92;63.73;96262.28;5036043;28;19935;-85
2023/05/30 10:20:36;;;;;;;;;;;;;;;22.95;62.84;96269.94;5024217;28;20016;-87
2023/05/30 10:23:06;;;;;;;;;;;;;;;22.96;62.98;96265.25;5043597;28;19932;-87
2023/05/30 10:25:35;;;;;;;;;;;;;;;23.10;63.27;96257.75;5045260;28;19925;-87
2023/05/30 10:28:03;;;;;;;;;;;;;;;23.18;63.09;96257.00;5030998;28;19947;-85
2023/05/30 10:30:31;;;;;;;;;;;;;;;23.25;61.05;96256.56;5031450;28;19929;-85
2023/05/30 10:33:03;;;;;;;;;;;;;;;23.11;61.12;96251.13;5023501;28;19924;-86
2023/05/30 10:35:30;;;;;;;;;;;;;;;23.07;62.04;96261.13;5048968;28;19931;-86
2023/05/30 10:37:58;;;;;;;;;;;;;;;23.04;62.14;96259.00;5021536;28;19925;-85
2023/05/30 10:40:33;;;;;;;;;;;;;;;23.16;63.10;96244.66;5023664;28;19925;-84
2023/05/30 10:43:06;;;;;;;;;;;;;;;23.27;61.73;96257.88;5049480;28;19925;-86
2023/05/30 10:45:39;;;;;;;;;;;;;;;23.28;63.13;96255.94;5026414;28;19929;-87
2023/05/30 10:48:12;;;;;;;;;;;;;;;23.32;60.92;96251.41;5031770;28;19939;-85
2023/05/30 10:50:41;;;;;;;;;;;;;;;23.22;60.46;96246.19;5028858;28;19933;-85
2023/05/30 10:53:14;;;;;;;;;;;;;;;23.36;61.14;96231.19;5019406;28;19925;-85
2023/05/30 10:55:41;;;;;;;;;;;;;;;23.56;61.44;96238.13;5029188;28;19924;-85
2023/05/30 10:58:23;;;;;;;;;;;;;;;23.76;61.93;96228.53;5039999;28;19929;-86
2023/05/30 11:00:50;;;;;;;;;;;;;;;24.08;59.39;96225.41;5034480;28;19925;-83
2023/05/30 11:03:36;;;;;;;;;;;;;;;23.85;59.80;96232.13;5025506;28;19940;-86
2023/05/30 11:06:03;;;;;;;;;;;;;;;24.14;59.37;96217.81;5026296;28;19925;-86
2023/05/30 11:08:31;;;;;;;;;;;;;;;24.07;58.15;96211.94;5024046;28;19932;-85
2023/05/30 11:10:58;;;;;;;;;;;;;;;24.20;58.39;96210.19;5024150;28;19996;-86
2023/05/30 11:13:28;;;;;;;;;;;;;;;24.13;58.94;96214.25;5025737;28;19968;-85
2023/05/30 11:15:55;;;;;;;;;;;;;;;24.22;57.39;96211.53;5030810;28;19952;-86
2023/05/30 11:18:23;;;;;;;;;;;;;;;24.41;57.14;96209.28;5030858;28;19967;-86
2023/05/30 11:20:53;;;;;;;;;;;;;;;24.45;56.52;96196.47;5028908;28;19925;-87
2023/05/30 11:23:21;;;;;;;;;;;;;;;24.42;55.51;96204.56;5021617;28;19925;-86
2023/05/30 11:25:48;;;;;;;;;;;;;;;24.31;56.56;96195.81;5030038;28;19929;-87
2023/05/30 11:28:16;;;;;;;;;;;;;;;24.39;56.40;96186.75;5033245;28;19933;-85
2023/05/30 11:30:47;;;;;;;;;;;;;;;24.65;56.12;96184.00;5047156;28;19925;-85
2023/05/30 11:33:14;;;;;;;;;;;;;;;24.61;55.35;96177.50;5024769;28;19929;-86
2023/05/30 11:35:42;;;;;;;;;;;;;;;24.76;55.71;96173.44;5025703;28;19935;-87
2023/05/30 11:38:11;;;;;;;;;;;;;;;24.85;54.92;96169.53;5044281;28;19925;-86
2023/05/30 11:40:42;;;;;;;;;;;;;;;24.92;54.48;96165.53;5025227;28;19925;-88
2023/05/30 11:43:09;;;;;;;;;;;;;;;24.98;54.11;96165.03;5028755;28;19932;-88
2023/05/30 11:45:36;;;;;;;;;;;;;;;25.23;52.35;96161.41;5026619;28;19932;-85
2023/05/30 11:48:04;;;;;;;;;;;;;;;25.48;50.45;96161.66;5041772;28;19931;-85
2023/05/30 11:50:31;;;;;;;;;;;;;;;25.38;51.17;96156.47;5043397;28;19964;-85
2023/05/30 11:52:58;;;;;;;;;;;;;;;25.43;50.60;96168.19;5022411;28;19925;-85
2023/05/30 11:55:27;;;;;;;;;;;;;;;25.56;53.26;96155.28;5024077;28;19929;-85
2023/05/30 11:57:54;;;;;;;;;;;;;;;25.83;50.04;96146.59;5025117;28;19925;-85
2023/05/30 12:00:21;;;;;;;;;;;;;;;26.04;49.92;96151.34;5027827;28;19933;-87
2023/05/30 12:02:48;;;;;;;;;;;;;;;26.11;48.98;96140.59;5027785;28;19936;-86
2023/05/30 12:05:15;;;;;;;;;;;;;;;26.00;49.72;96145.69;5032730;28;19925;-86
2023/05/30 12:07:42;;;;;;;;;;;;;;;25.98;48.50;96143.25;5047075;28;19932;-85
2023/05/30 12:10:09;;;;;;;;;;;;;;;26.00;50.00;96149.28;5028053;28;19933;-84
2023/05/30 12:12:38;;;;;;;;;;;;;;;26.10;49.54;96145.31;5030374;28;19928;-87
2023/05/30 12:15:06;;;;;;;;;;;;;;;26.19;48.00;96135.00;5026937;28;19931;-87
2023/05/30 12:17:33;;;;;;;;;;;;;;;26.03;48.66;96139.47;5020195;28;19932;-86
2023/05/30 12:20:00;;;;;;;;;;;;;;;26.09;48.58;96140.91;5031709;28;20003;-86
2023/05/30 12:22:30;;;;;;;;;;;;;;;26.11;50.60;96135.88;5016189;28;20187;-85
2023/05/30 12:24:58;;;;;;;;;;;;;;;26.18;48.22;96136.16;5022409;28;19964;-86
2023/05/30 12:27:26;;;;;;;;;;;;;;;26.42;48.38;96134.72;5042069;28;19925;-86
2023/05/30 12:29:55;;;;;;;;;;;;;;;26.41;46.85;96133.91;5044166;28;19932;-85
2023/05/30 12:32:23;;;;;;;;;;;;;;;26.49;46.18;96137.75;5020946;28;19925;-86
2023/05/30 12:34:50;;;;;;;;;;;;;;;26.42;45.92;96134.72;5022750;28;19933;-85
2023/05/30 12:37:17;;;;;;;;;;;;;;;26.58;46.02;96139.31;5031234;28;20075;-85
2023/05/30 12:39:48;;;;;;;;;;;;;;;26.72;45.17;96133.47;5030045;28;19940;-85
2023/05/30 12:42:14;;;;;;;;;;;;;;;26.87;43.84;96141.19;5031555;28;19925;-85
2023/05/30 12:44:53;;;;;;;;;;;;;;;26.98;43.66;96134.09;5033981;28;19933;-85
2023/05/30 12:47:22;;;;;;;;;;;;;;;27.01;44.06;96135.38;5025850;28;20020;-86